sensor_id;sensor_type;location;lat;lon;timestamp;temperature;humidity
5901;DHT22;2976;49.764;9.796;2023-09-08T00:02:06;16.00;56.70
5901;DHT22;2976;49.764;9.796;2023-09-08T00:04:31;15.90;50.10
5901;DHT22;2976;49.764;9.796;2023-09-08T00:06:59;15.80;68.90
5901;DHT22;2976;49.764;9.796;2023-09-08T00:09:24;15.80;99.90
5901;DHT22;2976;49.764;9.796;2023-09-08T00:11:50;15.70;99.90
5901;DHT22;2976;49.764;9.796;2023-09-08T00:14:15;15.70;99.90
5901;DHT22;2976;49.764;9.796;2023-09-08T00:16:41;15.80;99.90
5901;DHT22;2976;49.764;9.796;2023-09-08T00:19:09;15.80;99.90
5901;DHT22;2976;49.764;9.796;2023-09-08T00:21:35;15.90;92.10
5901;DHT22;2976;49.764;9.796;2023-09-08T00:24:01;16.00;56.90
5901;DHT22;2976;49.764;9.796;2023-09-08T00:26:27;16.10;11.50
5901;DHT22;2976;49.764;9.796;2023-09-08T00:28:52;16.10;1.00
5901;DHT22;2976;49.764;9.796;2023-09-08T00:31:18;16.10;1.00
5901;DHT22;2976;49.764;9.796;2023-09-08T00:33:43;16.10;1.00
5901;DHT22;2976;49.764;9.796;2023-09-08T00:36:09;16.10;1.00
5901;DHT22;2976;49.764;9.796;2023-09-08T00:38:35;16.00;1.00
5901;DHT22;2976;49.764;9.796;2023-09-08T00:41:01;16.10;1.00
5901;DHT22;2976;49.764;9.796;2023-09-08T00:43:27;16.10;1.00
5901;DHT22;2976;49.764;9.796;2023-09-08T00:45:54;16.10;1.00
5901;DHT22;2976;49.764;9.796;2023-09-08T00:48:21;16.10;1.00
5901;DHT22;2976;49.764;9.796;2023-09-08T00:50:46;16.10;1.00
5901;DHT22;2976;49.764;9.796;2023-09-08T00:53:12;16.00;1.00
5901;DHT22;2976;49.764;9.796;2023-09-08T00:55:39;15.90;55.70
5901;DHT22;2976;49.764;9.796;2023-09-08T00:58:05;15.60;99.90
5901;DHT22;2976;49.764;9.796;2023-09-08T01:00:31;15.40;99.90
5901;DHT22;2976;49.764;9.796;2023-09-08T01:02:58;15.30;99.90
5901;DHT22;2976;49.764;9.796;2023-09-08T01:05:23;15.10;99.90
5901;DHT22;2976;49.764;9.796;2023-09-08T01:07:50;14.90;99.90
5901;DHT22;2976;49.764;9.796;2023-09-08T01:10:16;14.70;99.90
5901;DHT22;2976;49.764;9.796;2023-09-08T01:12:41;14.60;99.90
5901;DHT22;2976;49.764;9.796;2023-09-08T01:15:07;14.50;99.90
5901;DHT22;2976;49.764;9.796;2023-09-08T01:17:33;14.40;99.90
5901;DHT22;2976;49.764;9.796;2023-09-08T01:20:04;14.30;99.90
5901;DHT22;2976;49.764;9.796;2023-09-08T01:25:18;14.20;99.90
5901;DHT22;2976;49.764;9.796;2023-09-08T01:27:56;14.20;99.90
5901;DHT22;2976;49.764;9.796;2023-09-08T01:30:24;14.20;99.90
5901;DHT22;2976;49.764;9.796;2023-09-08T01:32:51;14.30;99.90
5901;DHT22;2976;49.764;9.796;2023-09-08T01:35:17;14.40;99.90
5901;DHT22;2976;49.764;9.796;2023-09-08T01:37:45;14.40;99.90
5901;DHT22;2976;49.764;9.796;2023-09-08T01:40:11;14.30;99.90
5901;DHT22;2976;49.764;9.796;2023-09-08T01:42:40;14.30;99.90
5901;DHT22;2976;49.764;9.796;2023-09-08T01:45:07;14.20;99.90
5901;DHT22;2976;49.764;9.796;2023-09-08T01:47:33;14.20;99.90
5901;DHT22;2976;49.764;9.796;2023-09-08T01:49:59;14.20;99.90
5901;DHT22;2976;49.764;9.796;2023-09-08T01:52:25;14.10;99.90
5901;DHT22;2976;49.764;9.796;2023-09-08T01:54:51;14.10;99.90
5901;DHT22;2976;49.764;9.796;2023-09-08T01:57:17;14.00;99.90
5901;DHT22;2976;49.764;9.796;2023-09-08T01:59:43;14.00;99.90
5901;DHT22;2976;49.764;9.796;2023-09-08T02:02:10;14.00;99.90
5901;DHT22;2976;49.764;9.796;2023-09-08T02:04:35;14.00;99.90
5901;DHT22;2976;49.764;9.796;2023-09-08T02:07:01;14.00;99.90
5901;DHT22;2976;49.764;9.796;2023-09-08T02:09:33;13.90;99.90
5901;DHT22;2976;49.764;9.796;2023-09-08T02:12:00;13.80;99.90
5901;DHT22;2976;49.764;9.796;2023-09-08T02:14:25;13.70;99.90
5901;DHT22;2976;49.764;9.796;2023-09-08T02:16:51;13.70;99.90
5901;DHT22;2976;49.764;9.796;2023-09-08T02:19:16;13.60;99.90
5901;DHT22;2976;49.764;9.796;2023-09-08T02:21:42;13.60;99.90
5901;DHT22;2976;49.764;9.796;2023-09-08T02:24:07;13.60;99.90
5901;DHT22;2976;49.764;9.796;2023-09-08T02:26:33;13.60;99.90
5901;DHT22;2976;49.764;9.796;2023-09-08T02:28:59;13.50;99.90
5901;DHT22;2976;49.764;9.796;2023-09-08T02:31:27;13.50;99.90
5901;DHT22;2976;49.764;9.796;2023-09-08T02:33:52;13.60;99.90
5901;DHT22;2976;49.764;9.796;2023-09-08T02:36:18;13.70;99.90
5901;DHT22;2976;49.764;9.796;2023-09-08T02:38:53;13.70;99.90
5901;DHT22;2976;49.764;9.796;2023-09-08T02:41:19;13.70;99.90
5901;DHT22;2976;49.764;9.796;2023-09-08T02:43:45;13.60;99.90
5901;DHT22;2976;49.764;9.796;2023-09-08T02:46:11;13.60;99.90
5901;DHT22;2976;49.764;9.796;2023-09-08T02:48:37;13.60;99.90
5901;DHT22;2976;49.764;9.796;2023-09-08T02:51:02;13.60;99.90
5901;DHT22;2976;49.764;9.796;2023-09-08T02:53:28;13.50;99.90
5901;DHT22;2976;49.764;9.796;2023-09-08T02:55:57;13.40;99.90
5901;DHT22;2976;49.764;9.796;2023-09-08T02:58:24;13.30;99.90
5901;DHT22;2976;49.764;9.796;2023-09-08T03:00:50;13.20;99.90
5901;DHT22;2976;49.764;9.796;2023-09-08T03:03:17;13.10;99.90
5901;DHT22;2976;49.764;9.796;2023-09-08T03:05:43;13.00;99.90
5901;DHT22;2976;49.764;9.796;2023-09-08T03:08:09;12.90;99.90
5901;DHT22;2976;49.764;9.796;2023-09-08T03:10:34;12.90;99.90
5901;DHT22;2976;49.764;9.796;2023-09-08T03:13:00;12.80;99.90
5901;DHT22;2976;49.764;9.796;2023-09-08T03:15:26;12.80;99.90
5901;DHT22;2976;49.764;9.796;2023-09-08T03:17:54;12.80;99.90
5901;DHT22;2976;49.764;9.796;2023-09-08T03:20:20;12.70;99.90
5901;DHT22;2976;49.764;9.796;2023-09-08T03:22:46;12.70;99.90
5901;DHT22;2976;49.764;9.796;2023-09-08T03:25:13;12.70;99.90
5901;DHT22;2976;49.764;9.796;2023-09-08T03:27:39;12.70;99.90
5901;DHT22;2976;49.764;9.796;2023-09-08T03:30:05;12.60;99.90
5901;DHT22;2976;49.764;9.796;2023-09-08T03:32:31;12.60;99.90
5901;DHT22;2976;49.764;9.796;2023-09-08T03:34:57;12.60;99.90
5901;DHT22;2976;49.764;9.796;2023-09-08T03:37:22;12.60;99.90
5901;DHT22;2976;49.764;9.796;2023-09-08T03:39:48;12.60;99.90
5901;DHT22;2976;49.764;9.796;2023-09-08T03:42:13;12.60;99.90
5901;DHT22;2976;49.764;9.796;2023-09-08T03:44:39;12.60;99.90
5901;DHT22;2976;49.764;9.796;2023-09-08T03:47:04;12.50;99.90
5901;DHT22;2976;49.764;9.796;2023-09-08T03:49:30;12.50;99.90
5901;DHT22;2976;49.764;9.796;2023-09-08T03:51:56;12.50;99.90
5901;DHT22;2976;49.764;9.796;2023-09-08T03:54:23;12.50;99.90
5901;DHT22;2976;49.764;9.796;2023-09-08T03:56:49;12.40;99.90
5901;DHT22;2976;49.764;9.796;2023-09-08T03:59:14;12.30;99.90
5901;DHT22;2976;49.764;9.796;2023-09-08T04:01:40;12.30;99.90
5901;DHT22;2976;49.764;9.796;2023-09-08T04:04:05;12.30;99.90
5901;DHT22;2976;49.764;9.796;2023-09-08T04:06:31;12.30;99.90
5901;DHT22;2976;49.764;9.796;2023-09-08T04:08:56;12.30;99.90
5901;DHT22;2976;49.764;9.796;2023-09-08T04:11:22;12.30;99.90
5901;DHT22;2976;49.764;9.796;2023-09-08T04:13:47;12.30;99.90
5901;DHT22;2976;49.764;9.796;2023-09-08T04:16:13;12.30;99.90
5901;DHT22;2976;49.764;9.796;2023-09-08T04:18:39;12.20;99.90
5901;DHT22;2976;49.764;9.796;2023-09-08T04:21:06;12.20;99.90
5901;DHT22;2976;49.764;9.796;2023-09-08T04:23:32;12.30;99.90
5901;DHT22;2976;49.764;9.796;2023-09-08T04:25:58;12.30;99.90
5901;DHT22;2976;49.764;9.796;2023-09-08T04:28:24;12.30;99.90
5901;DHT22;2976;49.764;9.796;2023-09-08T04:30:49;12.30;99.90
5901;DHT22;2976;49.764;9.796;2023-09-08T04:33:15;12.30;99.90
5901;DHT22;2976;49.764;9.796;2023-09-08T04:35:40;12.20;99.90
5901;DHT22;2976;49.764;9.796;2023-09-08T04:38:06;12.20;99.90
5901;DHT22;2976;49.764;9.796;2023-09-08T04:40:32;12.20;99.90
5901;DHT22;2976;49.764;9.796;2023-09-08T04:42:57;12.20;99.90
5901;DHT22;2976;49.764;9.796;2023-09-08T04:45:23;12.30;99.90
5901;DHT22;2976;49.764;9.796;2023-09-08T04:47:48;12.40;99.90
5901;DHT22;2976;49.764;9.796;2023-09-08T04:50:15;12.40;99.90
5901;DHT22;2976;49.764;9.796;2023-09-08T04:52:40;12.50;99.90
5901;DHT22;2976;49.764;9.796;2023-09-08T04:55:06;12.40;99.90
5901;DHT22;2976;49.764;9.796;2023-09-08T04:57:32;12.40;99.90
5901;DHT22;2976;49.764;9.796;2023-09-08T04:59:57;12.30;99.90
5901;DHT22;2976;49.764;9.796;2023-09-08T05:02:23;12.30;99.90
5901;DHT22;2976;49.764;9.796;2023-09-08T05:04:48;12.20;99.90
5901;DHT22;2976;49.764;9.796;2023-09-08T05:07:14;12.10;99.90
5901;DHT22;2976;49.764;9.796;2023-09-08T05:09:40;12.10;99.90
5901;DHT22;2976;49.764;9.796;2023-09-08T05:12:05;12.10;99.90
5901;DHT22;2976;49.764;9.796;2023-09-08T05:14:31;12.20;99.90
5901;DHT22;2976;49.764;9.796;2023-09-08T05:16:56;12.30;99.90
5901;DHT22;2976;49.764;9.796;2023-09-08T05:19:22;12.30;99.90
5901;DHT22;2976;49.764;9.796;2023-09-08T05:21:53;12.40;99.90
5901;DHT22;2976;49.764;9.796;2023-09-08T05:24:19;12.50;99.90
5901;DHT22;2976;49.764;9.796;2023-09-08T05:26:46;12.40;99.90
5901;DHT22;2976;49.764;9.796;2023-09-08T05:29:11;12.50;99.90
5901;DHT22;2976;49.764;9.796;2023-09-08T05:31:37;12.50;99.90
5901;DHT22;2976;49.764;9.796;2023-09-08T05:34:02;12.60;99.90
5901;DHT22;2976;49.764;9.796;2023-09-08T05:36:28;12.60;99.90
5901;DHT22;2976;49.764;9.796;2023-09-08T05:38:55;12.60;99.90
5901;DHT22;2976;49.764;9.796;2023-09-08T05:41:21;12.70;99.90
5901;DHT22;2976;49.764;9.796;2023-09-08T05:43:46;12.70;99.90
5901;DHT22;2976;49.764;9.796;2023-09-08T05:46:12;12.70;99.90
5901;DHT22;2976;49.764;9.796;2023-09-08T05:48:38;12.70;99.90
5901;DHT22;2976;49.764;9.796;2023-09-08T05:51:04;12.70;99.90
5901;DHT22;2976;49.764;9.796;2023-09-08T05:53:32;12.80;99.90
5901;DHT22;2976;49.764;9.796;2023-09-08T05:55:57;12.80;99.90
5901;DHT22;2976;49.764;9.796;2023-09-08T05:58:23;12.80;99.90
5901;DHT22;2976;49.764;9.796;2023-09-08T06:00:53;12.90;99.90
5901;DHT22;2976;49.764;9.796;2023-09-08T06:03:19;13.30;99.90
5901;DHT22;2976;49.764;9.796;2023-09-08T06:05:44;14.10;99.90
5901;DHT22;2976;49.764;9.796;2023-09-08T06:08:10;14.90;99.90
5901;DHT22;2976;49.764;9.796;2023-09-08T06:10:35;15.50;99.90
5901;DHT22;2976;49.764;9.796;2023-09-08T06:13:01;16.30;99.90
5901;DHT22;2976;49.764;9.796;2023-09-08T06:15:27;16.90;99.90
5901;DHT22;2976;49.764;9.796;2023-09-08T06:17:52;17.40;99.90
5901;DHT22;2976;49.764;9.796;2023-09-08T06:20:18;17.30;99.90
5901;DHT22;2976;49.764;9.796;2023-09-08T06:22:43;17.70;99.90
5901;DHT22;2976;49.764;9.796;2023-09-08T06:25:09;18.00;99.90
5901;DHT22;2976;49.764;9.796;2023-09-08T06:27:35;18.40;59.70
5901;DHT22;2976;49.764;9.796;2023-09-08T06:30:00;18.10;84.80
5901;DHT22;2976;49.764;9.796;2023-09-08T06:32:26;17.80;99.90
5901;DHT22;2976;49.764;9.796;2023-09-08T06:34:51;18.30;99.90
5901;DHT22;2976;49.764;9.796;2023-09-08T06:37:17;19.60;1.00
5901;DHT22;2976;49.764;9.796;2023-09-08T06:39:42;20.50;1.00
5901;DHT22;2976;49.764;9.796;2023-09-08T06:42:08;21.10;99.90
5901;DHT22;2976;49.764;9.796;2023-09-08T06:44:33;20.60;99.90
5901;DHT22;2976;49.764;9.796;2023-09-08T06:46:59;20.50;99.90
5901;DHT22;2976;49.764;9.796;2023-09-08T06:49:25;19.90;1.00
5901;DHT22;2976;49.764;9.796;2023-09-08T06:51:50;19.40;1.00
5901;DHT22;2976;49.764;9.796;2023-09-08T06:54:16;19.00;16.60
5901;DHT22;2976;49.764;9.796;2023-09-08T06:56:41;19.20;2.10
5901;DHT22;2976;49.764;9.796;2023-09-08T06:59:07;20.00;1.00
5901;DHT22;2976;49.764;9.796;2023-09-08T07:01:33;20.40;1.00
5901;DHT22;2976;49.764;9.796;2023-09-08T07:03:58;20.30;1.00
5901;DHT22;2976;49.764;9.796;2023-09-08T07:06:24;19.90;1.00
5901;DHT22;2976;49.764;9.796;2023-09-08T07:08:49;19.60;1.00
5901;DHT22;2976;49.764;9.796;2023-09-08T07:11:18;19.50;1.00
5901;DHT22;2976;49.764;9.796;2023-09-08T07:13:43;19.70;1.00
5901;DHT22;2976;49.764;9.796;2023-09-08T07:16:09;19.40;15.60
5901;DHT22;2976;49.764;9.796;2023-09-08T07:18:34;19.30;43.40
5901;DHT22;2976;49.764;9.796;2023-09-08T07:21:04;19.30;93.00
5901;DHT22;2976;49.764;9.796;2023-09-08T07:23:30;19.70;16.50
5901;DHT22;2976;49.764;9.796;2023-09-08T07:25:55;19.60;1.00
5901;DHT22;2976;49.764;9.796;2023-09-08T07:28:21;20.10;1.00
5901;DHT22;2976;49.764;9.796;2023-09-08T07:30:46;20.90;1.00
5901;DHT22;2976;49.764;9.796;2023-09-08T07:33:12;21.10;99.90
5901;DHT22;2976;49.764;9.796;2023-09-08T07:35:39;21.80;99.90
5901;DHT22;2976;49.764;9.796;2023-09-08T07:38:05;22.20;99.90
5901;DHT22;2976;49.764;9.796;2023-09-08T07:40:32;22.50;99.90
5901;DHT22;2976;49.764;9.796;2023-09-08T07:42:59;22.40;1.00
5901;DHT22;2976;49.764;9.796;2023-09-08T07:45:24;22.50;1.00
5901;DHT22;2976;49.764;9.796;2023-09-08T07:47:50;23.00;1.00
5901;DHT22;2976;49.764;9.796;2023-09-08T07:50:24;23.50;1.00
5901;DHT22;2976;49.764;9.796;2023-09-08T07:52:52;23.50;99.90
5901;DHT22;2976;49.764;9.796;2023-09-08T07:55:18;23.90;99.90
5901;DHT22;2976;49.764;9.796;2023-09-08T07:57:45;24.20;99.90
5901;DHT22;2976;49.764;9.796;2023-09-08T08:00:14;24.10;99.90
5901;DHT22;2976;49.764;9.796;2023-09-08T08:02:42;24.00;99.90
5901;DHT22;2976;49.764;9.796;2023-09-08T08:05:09;24.20;99.90
5901;DHT22;2976;49.764;9.796;2023-09-08T08:07:35;24.60;99.90
5901;DHT22;2976;49.764;9.796;2023-09-08T08:10:01;24.70;99.90
5901;DHT22;2976;49.764;9.796;2023-09-08T08:12:26;24.50;99.90
5901;DHT22;2976;49.764;9.796;2023-09-08T08:14:52;24.60;99.90
5901;DHT22;2976;49.764;9.796;2023-09-08T08:17:18;24.90;99.90
5901;DHT22;2976;49.764;9.796;2023-09-08T08:19:45;25.10;99.90
5901;DHT22;2976;49.764;9.796;2023-09-08T08:22:10;25.10;99.90
5901;DHT22;2976;49.764;9.796;2023-09-08T08:24:36;25.30;99.90
5901;DHT22;2976;49.764;9.796;2023-09-08T08:27:02;25.60;99.90
5901;DHT22;2976;49.764;9.796;2023-09-08T08:29:28;26.20;99.90
5901;DHT22;2976;49.764;9.796;2023-09-08T08:31:54;26.70;99.90
5901;DHT22;2976;49.764;9.796;2023-09-08T08:34:20;27.00;99.90
5901;DHT22;2976;49.764;9.796;2023-09-08T08:36:45;27.30;99.90
5901;DHT22;2976;49.764;9.796;2023-09-08T08:39:11;27.00;99.90
5901;DHT22;2976;49.764;9.796;2023-09-08T08:41:36;27.00;1.00
5901;DHT22;2976;49.764;9.796;2023-09-08T08:44:06;27.00;3.00
5901;DHT22;2976;49.764;9.796;2023-09-08T08:46:34;27.00;25.40
5901;DHT22;2976;49.764;9.796;2023-09-08T08:49:03;27.10;1.00
5901;DHT22;2976;49.764;9.796;2023-09-08T08:51:30;26.90;99.90
5901;DHT22;2976;49.764;9.796;2023-09-08T08:53:56;27.30;51.20
5901;DHT22;2976;49.764;9.796;2023-09-08T08:56:22;27.50;99.90
5901;DHT22;2976;49.764;9.796;2023-09-08T08:58:49;28.10;25.80
5901;DHT22;2976;49.764;9.796;2023-09-08T09:01:18;28.10;29.00
5901;DHT22;2976;49.764;9.796;2023-09-08T09:03:49;28.20;90.40
5901;DHT22;2976;49.764;9.796;2023-09-08T09:06:16;28.20;91.00
5901;DHT22;2976;49.764;9.796;2023-09-08T09:08:45;28.10;1.00
5901;DHT22;2976;49.764;9.796;2023-09-08T09:11:12;27.80;1.00
5901;DHT22;2976;49.764;9.796;2023-09-08T09:13:38;27.60;1.00
5901;DHT22;2976;49.764;9.796;2023-09-08T09:16:04;27.60;1.00
5901;DHT22;2976;49.764;9.796;2023-09-08T09:18:33;27.20;1.00
5901;DHT22;2976;49.764;9.796;2023-09-08T09:21:00;27.20;1.00
5901;DHT22;2976;49.764;9.796;2023-09-08T09:25:53;27.20;1.00
5901;DHT22;2976;49.764;9.796;2023-09-08T09:28:19;27.30;1.00
5901;DHT22;2976;49.764;9.796;2023-09-08T09:30:50;27.10;1.00
5901;DHT22;2976;49.764;9.796;2023-09-08T09:33:17;27.50;1.00
5901;DHT22;2976;49.764;9.796;2023-09-08T09:35:47;27.60;1.00
5901;DHT22;2976;49.764;9.796;2023-09-08T09:38:13;27.40;1.00
5901;DHT22;2976;49.764;9.796;2023-09-08T09:40:39;27.60;1.00
5901;DHT22;2976;49.764;9.796;2023-09-08T09:43:06;27.80;1.00
5901;DHT22;2976;49.764;9.796;2023-09-08T09:45:36;28.30;1.00
5901;DHT22;2976;49.764;9.796;2023-09-08T09:48:06;28.60;37.70
5901;DHT22;2976;49.764;9.796;2023-09-08T09:50:40;28.50;99.90
5901;DHT22;2976;49.764;9.796;2023-09-08T09:53:14;28.50;1.00
5901;DHT22;2976;49.764;9.796;2023-09-08T09:55:41;28.20;1.00
5901;DHT22;2976;49.764;9.796;2023-09-08T09:58:08;27.90;1.00
5901;DHT22;2976;49.764;9.796;2023-09-08T10:00:34;27.70;1.00
5901;DHT22;2976;49.764;9.796;2023-09-08T10:03:01;27.50;1.00
5901;DHT22;2976;49.764;9.796;2023-09-08T10:05:27;27.50;1.00
5901;DHT22;2976;49.764;9.796;2023-09-08T10:07:53;27.50;1.00
5901;DHT22;2976;49.764;9.796;2023-09-08T10:10:20;27.70;1.00
5901;DHT22;2976;49.764;9.796;2023-09-08T10:12:50;27.50;1.00
5901;DHT22;2976;49.764;9.796;2023-09-08T10:15:19;27.80;1.00
5901;DHT22;2976;49.764;9.796;2023-09-08T10:17:51;28.10;1.00
5901;DHT22;2976;49.764;9.796;2023-09-08T10:20:18;28.40;40.00
5901;DHT22;2976;49.764;9.796;2023-09-08T10:22:54;28.50;1.00
5901;DHT22;2976;49.764;9.796;2023-09-08T10:25:24;28.40;1.00
5901;DHT22;2976;49.764;9.796;2023-09-08T10:27:53;28.50;1.00
5901;DHT22;2976;49.764;9.796;2023-09-08T10:30:20;28.70;21.00
5901;DHT22;2976;49.764;9.796;2023-09-08T10:32:48;28.50;1.00
5901;DHT22;2976;49.764;9.796;2023-09-08T10:35:16;28.50;1.00
5901;DHT22;2976;49.764;9.796;2023-09-08T10:37:43;28.40;1.00
5901;DHT22;2976;49.764;9.796;2023-09-08T10:40:24;28.30;1.00
5901;DHT22;2976;49.764;9.796;2023-09-08T10:43:08;28.40;1.00
5901;DHT22;2976;49.764;9.796;2023-09-08T10:45:34;28.40;19.50
5901;DHT22;2976;49.764;9.796;2023-09-08T10:48:00;28.30;1.00
5901;DHT22;2976;49.764;9.796;2023-09-08T10:50:32;28.00;1.00
5901;DHT22;2976;49.764;9.796;2023-09-08T10:55:44;28.00;25.10
5901;DHT22;2976;49.764;9.796;2023-09-08T10:58:18;28.30;1.00
5901;DHT22;2976;49.764;9.796;2023-09-08T11:00:50;28.40;1.00
5901;DHT22;2976;49.764;9.796;2023-09-08T11:03:26;28.50;1.00
5901;DHT22;2976;49.764;9.796;2023-09-08T11:05:53;28.80;2.70
5901;DHT22;2976;49.764;9.796;2023-09-08T11:08:18;28.90;99.90
5901;DHT22;2976;49.764;9.796;2023-09-08T11:10:44;28.80;8.80
5901;DHT22;2976;49.764;9.796;2023-09-08T11:13:10;28.60;53.20
5901;DHT22;2976;49.764;9.796;2023-09-08T11:15:37;28.80;49.90
5901;DHT22;2976;49.764;9.796;2023-09-08T11:18:06;28.80;1.00
5901;DHT22;2976;49.764;9.796;2023-09-08T11:20:32;29.00;1.00
5901;DHT22;2976;49.764;9.796;2023-09-08T11:22:58;29.30;7.00
5901;DHT22;2976;49.764;9.796;2023-09-08T11:25:25;29.40;98.20
5901;DHT22;2976;49.764;9.796;2023-09-08T11:27:50;29.50;99.90
5901;DHT22;2976;49.764;9.796;2023-09-08T11:30:16;29.20;28.00
5901;DHT22;2976;49.764;9.796;2023-09-08T11:32:42;29.30;99.90
5901;DHT22;2976;49.764;9.796;2023-09-08T11:35:10;29.40;99.90
5901;DHT22;2976;49.764;9.796;2023-09-08T11:37:40;29.50;99.90
5901;DHT22;2976;49.764;9.796;2023-09-08T11:40:08;29.60;99.90
5901;DHT22;2976;49.764;9.796;2023-09-08T11:42:41;29.50;99.90
5901;DHT22;2976;49.764;9.796;2023-09-08T11:47:36;29.00;99.90
5901;DHT22;2976;49.764;9.796;2023-09-08T11:50:02;29.00;99.90
5901;DHT22;2976;49.764;9.796;2023-09-08T11:52:28;29.30;99.90
5901;DHT22;2976;49.764;9.796;2023-09-08T11:54:54;29.50;99.90
5901;DHT22;2976;49.764;9.796;2023-09-08T11:57:19;29.50;99.90
5901;DHT22;2976;49.764;9.796;2023-09-08T11:59:45;29.80;99.90
5901;DHT22;2976;49.764;9.796;2023-09-08T12:02:14;29.90;99.90
5901;DHT22;2976;49.764;9.796;2023-09-08T12:04:39;30.00;99.90
5901;DHT22;2976;49.764;9.796;2023-09-08T12:07:07;30.00;99.90
5901;DHT22;2976;49.764;9.796;2023-09-08T12:09:38;30.00;99.90
5901;DHT22;2976;49.764;9.796;2023-09-08T12:12:04;29.90;1.00
5901;DHT22;2976;49.764;9.796;2023-09-08T12:14:40;29.80;1.00
5901;DHT22;2976;49.764;9.796;2023-09-08T12:17:07;29.80;1.00
5901;DHT22;2976;49.764;9.796;2023-09-08T12:19:33;29.50;99.90
5901;DHT22;2976;49.764;9.796;2023-09-08T12:22:03;29.40;99.90
5901;DHT22;2976;49.764;9.796;2023-09-08T12:25:08;29.30;99.90
5901;DHT22;2976;49.764;9.796;2023-09-08T12:27:36;29.10;99.90
5901;DHT22;2976;49.764;9.796;2023-09-08T12:30:02;29.10;99.90
5901;DHT22;2976;49.764;9.796;2023-09-08T12:32:30;29.20;99.90
5901;DHT22;2976;49.764;9.796;2023-09-08T12:34:57;29.30;99.90
5901;DHT22;2976;49.764;9.796;2023-09-08T12:37:23;29.40;99.90
5901;DHT22;2976;49.764;9.796;2023-09-08T12:39:50;29.50;99.90
5901;DHT22;2976;49.764;9.796;2023-09-08T12:42:18;29.60;99.90
5901;DHT22;2976;49.764;9.796;2023-09-08T12:44:44;29.50;99.90
5901;DHT22;2976;49.764;9.796;2023-09-08T12:47:10;29.40;99.90
5901;DHT22;2976;49.764;9.796;2023-09-08T12:49:39;29.30;1.00
5901;DHT22;2976;49.764;9.796;2023-09-08T12:52:05;29.20;1.00
5901;DHT22;2976;49.764;9.796;2023-09-08T12:54:31;29.30;99.90
5901;DHT22;2976;49.764;9.796;2023-09-08T12:56:57;29.30;99.90
5901;DHT22;2976;49.764;9.796;2023-09-08T12:59:22;29.20;99.90
5901;DHT22;2976;49.764;9.796;2023-09-08T13:01:48;29.20;99.90
5901;DHT22;2976;49.764;9.796;2023-09-08T13:04:14;29.10;99.90
5901;DHT22;2976;49.764;9.796;2023-09-08T13:06:40;29.10;99.90
5901;DHT22;2976;49.764;9.796;2023-09-08T13:09:05;29.20;99.90
5901;DHT22;2976;49.764;9.796;2023-09-08T13:11:31;29.10;99.90
5901;DHT22;2976;49.764;9.796;2023-09-08T13:13:57;29.00;99.90
5901;DHT22;2976;49.764;9.796;2023-09-08T13:16:22;29.00;99.90
5901;DHT22;2976;49.764;9.796;2023-09-08T13:18:48;29.00;99.90
5901;DHT22;2976;49.764;9.796;2023-09-08T13:21:14;29.10;99.90
5901;DHT22;2976;49.764;9.796;2023-09-08T13:23:40;29.10;99.90
5901;DHT22;2976;49.764;9.796;2023-09-08T13:26:05;29.10;99.90
5901;DHT22;2976;49.764;9.796;2023-09-08T13:28:31;29.30;99.90
5901;DHT22;2976;49.764;9.796;2023-09-08T13:30:56;29.20;99.90
5901;DHT22;2976;49.764;9.796;2023-09-08T13:33:22;29.20;99.90
5901;DHT22;2976;49.764;9.796;2023-09-08T13:35:47;29.10;99.90
5901;DHT22;2976;49.764;9.796;2023-09-08T13:38:13;29.10;99.90
5901;DHT22;2976;49.764;9.796;2023-09-08T13:40:38;29.00;1.00
5901;DHT22;2976;49.764;9.796;2023-09-08T13:43:05;29.10;99.90
5901;DHT22;2976;49.764;9.796;2023-09-08T13:45:30;29.10;99.90
5901;DHT22;2976;49.764;9.796;2023-09-08T13:47:56;29.10;1.00
5901;DHT22;2976;49.764;9.796;2023-09-08T13:50:21;29.10;99.90
5901;DHT22;2976;49.764;9.796;2023-09-08T13:52:49;29.00;99.90
5901;DHT22;2976;49.764;9.796;2023-09-08T13:55:15;29.00;99.90
5901;DHT22;2976;49.764;9.796;2023-09-08T13:57:40;28.90;99.90
5901;DHT22;2976;49.764;9.796;2023-09-08T14:00:06;28.90;99.90
5901;DHT22;2976;49.764;9.796;2023-09-08T14:02:34;28.90;99.90
5901;DHT22;2976;49.764;9.796;2023-09-08T14:04:59;28.90;99.90
5901;DHT22;2976;49.764;9.796;2023-09-08T14:07:25;28.90;99.90
5901;DHT22;2976;49.764;9.796;2023-09-08T14:09:50;28.90;99.90
5901;DHT22;2976;49.764;9.796;2023-09-08T14:12:16;28.90;99.90
5901;DHT22;2976;49.764;9.796;2023-09-08T14:14:41;28.80;99.90
5901;DHT22;2976;49.764;9.796;2023-09-08T14:17:07;28.80;99.90
5901;DHT22;2976;49.764;9.796;2023-09-08T14:19:33;28.90;99.90
5901;DHT22;2976;49.764;9.796;2023-09-08T14:21:58;28.90;99.90
5901;DHT22;2976;49.764;9.796;2023-09-08T14:24:24;28.80;99.90
5901;DHT22;2976;49.764;9.796;2023-09-08T14:26:49;28.80;99.90
5901;DHT22;2976;49.764;9.796;2023-09-08T14:29:16;28.80;99.90
5901;DHT22;2976;49.764;9.796;2023-09-08T14:31:42;28.80;99.90
5901;DHT22;2976;49.764;9.796;2023-09-08T14:34:08;28.80;99.90
5901;DHT22;2976;49.764;9.796;2023-09-08T14:36:34;28.70;99.90
5901;DHT22;2976;49.764;9.796;2023-09-08T14:39:00;28.70;99.90
5901;DHT22;2976;49.764;9.796;2023-09-08T14:41:26;28.70;99.90
5901;DHT22;2976;49.764;9.796;2023-09-08T14:43:51;28.70;99.90
5901;DHT22;2976;49.764;9.796;2023-09-08T14:46:17;28.70;99.90
5901;DHT22;2976;49.764;9.796;2023-09-08T14:48:42;28.70;99.90
5901;DHT22;2976;49.764;9.796;2023-09-08T14:51:08;28.70;99.90
5901;DHT22;2976;49.764;9.796;2023-09-08T14:53:34;28.80;99.90
5901;DHT22;2976;49.764;9.796;2023-09-08T14:56:00;28.80;99.90
5901;DHT22;2976;49.764;9.796;2023-09-08T14:58:25;28.70;99.90
5901;DHT22;2976;49.764;9.796;2023-09-08T15:00:57;28.70;99.90
5901;DHT22;2976;49.764;9.796;2023-09-08T15:03:23;28.70;99.90
5901;DHT22;2976;49.764;9.796;2023-09-08T15:05:48;28.70;99.90
5901;DHT22;2976;49.764;9.796;2023-09-08T15:08:14;28.70;99.90
5901;DHT22;2976;49.764;9.796;2023-09-08T15:10:39;28.80;99.90
5901;DHT22;2976;49.764;9.796;2023-09-08T15:13:05;28.70;99.90
5901;DHT22;2976;49.764;9.796;2023-09-08T15:15:30;28.70;99.90
5901;DHT22;2976;49.764;9.796;2023-09-08T15:17:56;28.60;99.90
5901;DHT22;2976;49.764;9.796;2023-09-08T15:20:22;28.60;99.90
5901;DHT22;2976;49.764;9.796;2023-09-08T15:22:48;28.60;99.90
5901;DHT22;2976;49.764;9.796;2023-09-08T15:25:14;28.60;1.00
5901;DHT22;2976;49.764;9.796;2023-09-08T15:27:40;28.60;1.00
5901;DHT22;2976;49.764;9.796;2023-09-08T15:30:06;28.60;99.90
5901;DHT22;2976;49.764;9.796;2023-09-08T15:32:32;28.50;99.90
5901;DHT22;2976;49.764;9.796;2023-09-08T15:34:57;28.50;1.00
5901;DHT22;2976;49.764;9.796;2023-09-08T15:37:23;28.50;1.00
5901;DHT22;2976;49.764;9.796;2023-09-08T15:39:48;28.50;99.90
5901;DHT22;2976;49.764;9.796;2023-09-08T15:42:14;28.50;99.90
5901;DHT22;2976;49.764;9.796;2023-09-08T15:44:39;28.50;99.90
5901;DHT22;2976;49.764;9.796;2023-09-08T15:47:05;28.40;99.90
5901;DHT22;2976;49.764;9.796;2023-09-08T15:49:30;28.50;99.90
5901;DHT22;2976;49.764;9.796;2023-09-08T15:51:56;28.40;99.90
5901;DHT22;2976;49.764;9.796;2023-09-08T15:54:22;28.40;99.90
5901;DHT22;2976;49.764;9.796;2023-09-08T15:56:47;28.30;99.90
5901;DHT22;2976;49.764;9.796;2023-09-08T15:59:16;28.30;99.90
5901;DHT22;2976;49.764;9.796;2023-09-08T16:01:42;28.30;99.90
5901;DHT22;2976;49.764;9.796;2023-09-08T16:04:08;28.20;99.90
5901;DHT22;2976;49.764;9.796;2023-09-08T16:06:37;28.20;99.90
5901;DHT22;2976;49.764;9.796;2023-09-08T16:09:03;28.20;99.90
5901;DHT22;2976;49.764;9.796;2023-09-08T16:11:31;28.20;99.90